Greenfield, Missouri
Current Conditions -  °F | °C
As of 5:00 AM on Saturday 22 Nov 2014 (Local Time) from KSGF Reporting Station
Overcast Overcast  
Wind Chill: 43°   Ceiling: 2300
Heat Index: 48°   Visibility: 10mi
Dew Point: 44°   Wind: 12mph
Humidity: 86%   Direction: 170°S
Pressure: 30.09"   Gusts: NA
Location:  37.42°N, 93.84°W
Report Text: KSGF 221100Z 17010KT 10SM BKN023 BKN030 OVC038 09/07 A3009 RMK AO2 T00890067
Loading
Personal Weather Stations






























Interactive Weather Map New forecast layout! Learn more

10-Day Weather Forecast

Advertisements
Track Severe Weather on mobile